Time;durP1;ratioP1;P1;durP2;ratioP2;P2;SDS_P1;SDS_P2;PMS_P1;PMS_P2;Temp;Humidity;BMP_temperature;BMP_pressure;BME280_temperature;BME280_humidity;BME280_pressure;Samples;Min_cycle;Max_cycle;Signal;HPM_P1;HPM_P2
2021/09/23 00:00:55;;;;;;;29.20;17.92;;;15.30;99.90;;;;;;4165248;28;20038;-74
2021/09/23 00:04:56;;;;;;;26.52;17.90;;;15.20;99.90;;;;;;4173190;28;20037;-73
2021/09/23 00:06:56;;;;;;;23.20;16.15;;;15.30;99.90;;;;;;4172894;28;20033;-73
2021/09/23 00:08:57;;;;;;;25.42;17.55;;;15.30;99.90;;;;;;4175602;28;20049;-74
2021/09/23 00:10:58;;;;;;;30.42;18.05;;;15.30;99.90;;;;;;4176486;28;20041;-74
2021/09/23 00:12:58;;;;;;;26.10;16.30;;;15.30;99.90;;;;;;4176727;28;20033;-74
2021/09/23 00:14:59;;;;;;;24.30;16.02;;;15.30;99.90;;;;;;4175362;28;20040;-74
2021/09/23 00:17:00;;;;;;;25.00;16.70;;;15.30;99.90;;;;;;4170464;28;20021;-73
2021/09/23 00:19:01;;;;;;;25.10;17.10;;;15.30;99.90;;;;;;4172124;28;20330;-74
2021/09/23 00:21:07;;;;;;;29.02;16.75;;;15.30;99.90;;;;;;4165841;28;20528;-74
2021/09/23 00:23:09;;;;;;;24.88;16.00;;;15.30;99.90;;;;;;4166865;28;20097;-74
2021/09/23 00:25:11;;;;;;;23.17;15.05;;;15.40;99.90;;;;;;4177606;28;20051;-74
2021/09/23 00:27:11;;;;;;;23.15;15.50;;;15.40;99.90;;;;;;4167597;28;20128;-74
2021/09/23 00:29:12;;;;;;;23.98;15.57;;;15.40;99.90;;;;;;4180243;28;20721;-74
2021/09/23 00:31:13;;;;;;;23.50;15.48;;;15.40;99.90;;;;;;4166846;28;20045;-74
2021/09/23 00:33:13;;;;;;;21.85;14.48;;;15.30;99.90;;;;;;4168452;28;20048;-74
2021/09/23 00:35:14;;;;;;;22.10;14.77;;;15.30;99.90;;;;;;4180086;28;20036;-74
2021/09/23 00:37:15;;;;;;;24.58;16.25;;;15.30;99.90;;;;;;4169755;28;20025;-73
2021/09/23 00:39:16;;;;;;;22.25;14.75;;;15.30;99.90;;;;;;4168921;28;20812;-73
2021/09/23 00:41:16;;;;;;;22.50;15.18;;;15.30;99.90;;;;;;4178766;28;20035;-73
2021/09/23 00:43:17;;;;;;;21.77;15.10;;;15.30;99.90;;;;;;4177336;28;20081;-74
2021/09/23 00:45:20;;;;;;;22.23;15.10;;;15.20;99.90;;;;;;4169417;28;20083;-74
2021/09/23 00:47:21;;;;;;;23.35;16.02;;;15.20;99.90;;;;;;4164631;28;20038;-74
2021/09/23 00:49:22;;;;;;;24.23;16.52;;;15.20;99.90;;;;;;4175116;28;20065;-74
2021/09/23 00:51:22;;;;;;;25.85;17.23;;;15.20;99.90;;;;;;4172785;28;20108;-73
2021/09/23 00:53:25;;;;;;;23.45;16.10;;;15.20;99.90;;;;;;4185080;28;20036;-74
2021/09/23 00:55:26;;;;;;;22.50;15.60;;;15.20;99.90;;;;;;4189131;28;20032;-74
2021/09/23 00:57:26;;;;;;;24.67;15.40;;;15.20;99.90;;;;;;4163237;28;20116;-73
2021/09/23 00:59:27;;;;;;;23.55;15.90;;;15.20;99.90;;;;;;4169182;28;20397;-74
2021/09/23 01:01:28;;;;;;;24.45;16.10;;;15.20;99.90;;;;;;4177586;28;20384;-74
2021/09/23 01:03:29;;;;;;;27.05;16.70;;;15.10;99.90;;;;;;4180471;28;20055;-74
2021/09/23 01:05:30;;;;;;;24.70;16.38;;;15.10;99.90;;;;;;4152653;28;20030;-74
2021/09/23 01:07:31;;;;;;;25.08;16.80;;;15.10;99.90;;;;;;4185058;28;20033;-74
2021/09/23 01:09:43;;;;;;;23.08;15.60;;;15.00;99.90;;;;;;4182054;28;20712;-73
2021/09/23 01:11:44;;;;;;;23.90;15.55;;;15.00;99.90;;;;;;4142978;28;20034;-74
2021/09/23 01:13:45;;;;;;;21.15;14.48;;;15.00;99.90;;;;;;4159347;28;20033;-74
2021/09/23 01:15:45;;;;;;;22.80;15.05;;;14.90;99.90;;;;;;4161446;28;20026;-74
2021/09/23 01:17:47;;;;;;;29.70;15.55;;;14.90;99.90;;;;;;4151199;28;20022;-74
2021/09/23 01:19:48;;;;;;;25.52;15.82;;;14.90;99.90;;;;;;4150784;28;20037;-74
2021/09/23 01:21:48;;;;;;;20.33;14.00;;;14.80;99.90;;;;;;4157521;28;20097;-74
2021/09/23 01:23:49;;;;;;;17.73;13.25;;;14.80;99.90;;;;;;4148653;28;20057;-73
2021/09/23 01:25:49;;;;;;;20.55;13.02;;;14.80;99.90;;;;;;4159435;28;20049;-74
2021/09/23 01:27:51;;;;;;;22.42;14.02;;;14.80;99.90;;;;;;4150783;28;20645;-74
2021/09/23 01:29:51;;;;;;;20.88;14.25;;;14.80;99.90;;;;;;4146721;28;20068;-74
2021/09/23 01:31:53;;;;;;;19.50;13.50;;;14.80;99.90;;;;;;4155920;28;20037;-74
2021/09/23 01:33:54;;;;;;;19.33;13.17;;;14.80;99.90;;;;;;4164655;28;20041;-74
2021/09/23 01:35:55;;;;;;;22.15;14.50;;;14.90;99.90;;;;;;4162372;28;20260;-74
2021/09/23 01:37:55;;;;;;;19.52;14.07;;;14.90;99.90;;;;;;4154240;28;20029;-74
2021/09/23 01:39:56;;;;;;;24.17;14.73;;;14.80;99.90;;;;;;4163788;28;20041;-73
2021/09/23 01:41:57;;;;;;;21.20;13.25;;;14.80;99.90;;;;;;4151164;28;20069;-74
2021/09/23 01:43:58;;;;;;;19.70;13.35;;;14.90;99.90;;;;;;4159917;28;20030;-74
2021/09/23 01:45:58;;;;;;;22.38;14.40;;;14.90;99.90;;;;;;4149565;28;20069;-74
2021/09/23 01:47:59;;;;;;;19.30;12.68;;;14.90;99.90;;;;;;4157934;28;20033;-74
2021/09/23 01:50:00;;;;;;;18.33;12.80;;;14.90;99.90;;;;;;4161737;28;20638;-74
2021/09/23 01:52:01;;;;;;;20.90;12.63;;;14.90;99.90;;;;;;4162475;28;20073;-74
2021/09/23 01:54:03;;;;;;;18.38;13.05;;;14.90;99.90;;;;;;4160747;28;20041;-74
2021/09/23 01:56:04;;;;;;;18.83;12.90;;;14.90;99.90;;;;;;4151538;28;20045;-74
2021/09/23 01:58:05;;;;;;;19.05;12.40;;;14.90;99.90;;;;;;4149746;28;20038;-74
2021/09/23 02:00:06;;;;;;;21.35;12.95;;;14.90;99.90;;;;;;4160210;28;20067;-74
2021/09/23 02:02:07;;;;;;;19.17;12.73;;;14.90;99.90;;;;;;4161164;28;20045;-74
2021/09/23 02:04:07;;;;;;;19.40;13.13;;;14.90;99.90;;;;;;4164526;28;20068;-74
2021/09/23 02:06:08;;;;;;;19.02;12.23;;;14.90;99.90;;;;;;4161606;28;21727;-74
2021/09/23 02:08:09;;;;;;;20.70;12.38;;;14.90;99.90;;;;;;4161814;28;20525;-74
2021/09/23 02:10:11;;;;;;;20.50;13.68;;;14.90;99.90;;;;;;4153945;28;20045;-74
2021/09/23 02:12:11;;;;;;;20.30;13.38;;;14.90;99.90;;;;;;4155538;28;20037;-74
2021/09/23 02:14:12;;;;;;;20.05;12.90;;;14.80;99.90;;;;;;4157740;28;20046;-74
2021/09/23 02:16:13;;;;;;;22.40;13.23;;;14.80;99.90;;;;;;4161265;28;20239;-74
2021/09/23 02:18:13;;;;;;;16.27;11.10;;;14.80;99.90;;;;;;4147849;28;20045;-74
2021/09/23 02:20:14;;;;;;;17.67;11.98;;;14.80;99.90;;;;;;4154837;28;20048;-74
2021/09/23 02:22:14;;;;;;;17.88;11.68;;;14.80;99.90;;;;;;4164706;28;20041;-74
2021/09/23 02:24:15;;;;;;;18.77;12.52;;;14.80;99.90;;;;;;4151046;28;20037;-74
2021/09/23 02:26:16;;;;;;;18.77;12.73;;;14.70;99.90;;;;;;4154117;28;20025;-74
2021/09/23 02:28:17;;;;;;;18.02;12.38;;;14.70;99.90;;;;;;4162963;28;20524;-74
2021/09/23 02:30:18;;;;;;;20.40;13.55;;;14.70;99.90;;;;;;4153002;28;20037;-74
2021/09/23 02:32:19;;;;;;;21.98;13.52;;;14.70;99.90;;;;;;4162684;28;20095;-74
2021/09/23 02:34:19;;;;;;;22.48;14.57;;;14.70;99.90;;;;;;4162003;28;20087;-73
2021/09/23 02:36:21;;;;;;;21.20;14.25;;;14.70;99.90;;;;;;4158241;28;20038;-74
2021/09/23 02:38:22;;;;;;;23.15;14.38;;;14.70;99.90;;;;;;4154594;28;20489;-74
2021/09/23 02:40:22;;;;;;;21.17;14.30;;;14.60;99.90;;;;;;4134162;28;20053;-74
2021/09/23 02:42:24;;;;;;;22.42;13.95;;;14.50;99.90;;;;;;4158741;28;20045;-73
2021/09/23 02:44:24;;;;;;;22.10;13.00;;;14.50;99.90;;;;;;4154513;28;20370;-74
2021/09/23 02:46:25;;;;;;;21.88;13.77;;;14.50;99.90;;;;;;4161564;28;20036;-74
2021/09/23 02:48:25;;;;;;;22.67;13.23;;;14.50;99.90;;;;;;4150123;28;20034;-74
2021/09/23 02:50:26;;;;;;;22.20;13.10;;;14.50;99.90;;;;;;4149104;28;20039;-74
2021/09/23 02:52:26;;;;;;;19.63;11.98;;;14.50;99.90;;;;;;4152728;28;20041;-74
2021/09/23 02:54:27;;;;;;;20.63;13.00;;;14.50;99.90;;;;;;4153791;28;20042;-74
2021/09/23 02:56:28;;;;;;;19.42;12.32;;;14.50;99.90;;;;;;4163478;28;20066;-74
2021/09/23 02:58:29;;;;;;;18.98;12.38;;;14.50;99.90;;;;;;4161421;28;20045;-74
2021/09/23 03:00:29;;;;;;;19.67;12.18;;;14.50;99.90;;;;;;4149815;28;20034;-74
2021/09/23 03:02:30;;;;;;;20.52;12.38;;;14.50;99.90;;;;;;4150019;28;20258;-74
2021/09/23 03:04:31;;;;;;;19.17;12.18;;;14.50;99.90;;;;;;4150274;28;20045;-74
2021/09/23 03:06:31;;;;;;;18.65;12.55;;;14.40;99.90;;;;;;4152322;28;20045;-74
2021/09/23 03:08:32;;;;;;;18.48;12.18;;;14.30;99.90;;;;;;4153749;28;20402;-74
2021/09/23 03:10:32;;;;;;;20.58;12.45;;;14.30;99.90;;;;;;4147893;28;20041;-74
2021/09/23 03:12:33;;;;;;;18.67;12.27;;;14.30;99.90;;;;;;4156299;28;20037;-74
2021/09/23 03:14:34;;;;;;;17.92;12.30;;;14.30;99.90;;;;;;4162709;28;20112;-74
2021/09/23 03:16:34;;;;;;;19.70;12.52;;;14.30;99.90;;;;;;4153018;28;20038;-74
2021/09/23 03:18:37;;;;;;;19.40;12.27;;;14.30;99.90;;;;;;4149385;28;20030;-74
2021/09/23 03:20:37;;;;;;;;;;;14.30;99.90;;;;;;4150253;28;20406;-73
2021/09/23 03:22:38;;;;;;;21.05;12.52;;;14.30;99.90;;;;;;4175712;28;19912;-74
2021/09/23 03:24:40;;;;;;;20.08;13.63;;;14.20;99.90;;;;;;4153041;28;20053;-74
2021/09/23 03:26:42;;;;;;;22.40;14.38;;;14.20;99.90;;;;;;4154089;28;20474;-74
2021/09/23 03:28:43;;;;;;;23.55;14.27;;;14.10;99.90;;;;;;4141164;28;20119;-74
2021/09/23 03:30:44;;;;;;;23.42;14.27;;;14.10;99.90;;;;;;4156871;28;20046;-74
2021/09/23 03:32:45;;;;;;;20.90;13.90;;;14.00;99.90;;;;;;4159980;28;20095;-74
2021/09/23 03:34:45;;;;;;;24.00;13.40;;;14.00;99.90;;;;;;4160779;28;20102;-74
2021/09/23 03:36:46;;;;;;;23.80;14.85;;;14.00;99.90;;;;;;4158154;28;20117;-74
2021/09/23 03:38:46;;;;;;;26.60;14.85;;;13.90;99.90;;;;;;4150600;28;20042;-74
2021/09/23 03:40:48;;;;;;;20.13;12.95;;;13.90;99.90;;;;;;4157663;28;20570;-74
2021/09/23 03:42:49;;;;;;;22.83;13.47;;;13.90;99.90;;;;;;4148452;28;20042;-74
2021/09/23 03:44:50;;;;;;;26.42;15.38;;;13.90;99.90;;;;;;4148998;28;20053;-74
2021/09/23 03:46:55;;;;;;;24.38;14.88;;;13.80;99.90;;;;;;4148487;28;20041;-74
2021/09/23 03:48:56;;;;;;;25.83;14.30;;;13.80;99.90;;;;;;4156088;28;20091;-74
2021/09/23 03:50:58;;;;;;;22.20;13.63;;;13.70;99.90;;;;;;4139232;28;20129;-74
2021/09/23 03:52:58;;;;;;;25.55;13.90;;;13.70;99.90;;;;;;4157189;28;20042;-74
2021/09/23 03:54:59;;;;;;;22.25;13.48;;;13.70;99.90;;;;;;4147792;28;20670;-74
2021/09/23 03:56:59;;;;;;;20.25;13.10;;;13.70;99.90;;;;;;4156890;28;20057;-74
2021/09/23 03:59:00;;;;;;;18.77;12.90;;;13.70;99.90;;;;;;4160354;28;20088;-74
2021/09/23 04:01:00;;;;;;;21.15;13.38;;;13.70;99.90;;;;;;4152817;28;20552;-74
2021/09/23 04:03:01;;;;;;;19.65;12.65;;;13.70;99.90;;;;;;4152674;28;20041;-74
2021/09/23 04:05:05;;;;;;;24.58;14.00;;;13.70;99.90;;;;;;4158804;28;20457;-74
2021/09/23 04:07:06;;;;;;;23.25;13.18;;;13.70;99.90;;;;;;4154154;28;20048;-74
2021/09/23 04:09:08;;;;;;;21.40;13.02;;;13.70;99.90;;;;;;4159887;28;20034;-74
2021/09/23 04:11:08;;;;;;;20.67;13.32;;;13.70;99.90;;;;;;4156572;28;20050;-74
2021/09/23 04:13:09;;;;;;;21.77;13.40;;;13.70;99.90;;;;;;4152148;28;20036;-74
2021/09/23 04:15:10;;;;;;;18.75;13.07;;;13.70;99.90;;;;;;4154844;28;20100;-74
2021/09/23 04:17:11;;;;;;;19.73;12.82;;;13.70;99.90;;;;;;4157808;28;20038;-74
2021/09/23 04:19:11;;;;;;;22.23;13.77;;;13.70;99.90;;;;;;4156960;28;20033;-74
2021/09/23 04:21:12;;;;;;;18.98;12.50;;;13.70;99.90;;;;;;4158842;28;20653;-74
2021/09/23 04:23:14;;;;;;;26.77;13.32;;;13.70;99.90;;;;;;4151098;28;20029;-74
2021/09/23 04:25:14;;;;;;;21.42;13.57;;;13.70;99.90;;;;;;4160333;28;20120;-74
2021/09/23 04:27:15;;;;;;;21.13;12.32;;;13.70;99.90;;;;;;4159033;28;20049;-74
2021/09/23 04:29:16;;;;;;;21.10;12.07;;;13.70;99.90;;;;;;4154956;28;20030;-74
2021/09/23 04:31:17;;;;;;;16.73;11.15;;;13.70;99.90;;;;;;4155582;28;20132;-74
2021/09/23 04:33:17;;;;;;;20.23;12.48;;;13.70;99.90;;;;;;4150895;28;20041;-74
2021/09/23 04:35:18;;;;;;;19.40;12.15;;;13.70;99.90;;;;;;4161166;28;20034;-74
2021/09/23 04:37:18;;;;;;;20.05;12.57;;;13.70;99.90;;;;;;4161331;28;20076;-74
2021/09/23 04:39:19;;;;;;;20.00;12.10;;;13.70;99.90;;;;;;4159681;28;20042;-74
2021/09/23 04:41:20;;;;;;;19.90;12.60;;;13.70;99.90;;;;;;4149512;28;20649;-74
2021/09/23 04:43:21;;;;;;;20.73;13.02;;;13.70;99.90;;;;;;4153489;28;20045;-74
2021/09/23 04:45:21;;;;;;;20.85;12.07;;;13.70;99.90;;;;;;4148149;28;20061;-74
2021/09/23 04:47:22;;;;;;;19.20;11.48;;;13.70;99.90;;;;;;4146045;28;20038;-74
2021/09/23 04:49:23;;;;;;;18.48;12.05;;;13.70;99.90;;;;;;4157242;28;20842;-74
2021/09/23 04:51:25;;;;;;;20.83;12.98;;;13.70;99.90;;;;;;4145374;28;20092;-74
2021/09/23 04:53:25;;;;;;;19.77;12.15;;;13.70;99.90;;;;;;4147340;28;20030;-74
2021/09/23 04:55:26;;;;;;;17.38;11.45;;;13.60;99.90;;;;;;4157405;28;20067;-75
2021/09/23 04:57:27;;;;;;;17.90;12.13;;;13.60;99.90;;;;;;4139394;28;20042;-74
2021/09/23 04:59:27;;;;;;;20.90;12.95;;;13.60;99.90;;;;;;4150230;28;20053;-74
2021/09/23 05:01:28;;;;;;;19.35;11.93;;;13.50;99.90;;;;;;4155225;28;20091;-74
2021/09/23 05:03:29;;;;;;;20.33;13.77;;;13.50;99.90;;;;;;4156770;28;20029;-74
2021/09/23 05:05:30;;;;;;;20.55;12.05;;;13.40;99.90;;;;;;4155973;28;20385;-75
2021/09/23 05:07:30;;;;;;;16.02;11.00;;;13.40;99.90;;;;;;4157074;28;20025;-75
2021/09/23 05:09:33;;;;;;;17.92;11.45;;;13.40;99.90;;;;;;4155010;28;20544;-74
2021/09/23 05:11:34;;;;;;;;;;;13.40;99.90;;;;;;4156556;28;20613;-74
2021/09/23 05:13:34;;;;;;;15.93;10.82;;;13.40;99.90;;;;;;4154953;28;19909;-75
2021/09/23 05:15:36;;;;;;;26.08;11.70;;;13.30;99.90;;;;;;4156353;28;20046;-74
2021/09/23 05:17:37;;;;;;;19.33;12.23;;;13.30;99.90;;;;;;4156943;28;20046;-74
2021/09/23 05:19:38;;;;;;;20.00;12.00;;;13.30;99.90;;;;;;4155550;28;20370;-75
2021/09/23 05:21:39;;;;;;;17.83;10.55;;;13.30;99.90;;;;;;4156944;28;20024;-74
2021/09/23 05:23:39;;;;;;;22.58;11.50;;;13.20;99.90;;;;;;4144850;28;20025;-74
2021/09/23 05:25:40;;;;;;;18.35;11.48;;;13.20;99.90;;;;;;4149469;28;20025;-74
2021/09/23 05:27:41;;;;;;;17.75;11.20;;;13.20;99.90;;;;;;4139550;28;20037;-73
2021/09/23 05:29:43;;;;;;;18.00;11.80;;;13.20;99.90;;;;;;4160637;28;20029;-74
2021/09/23 05:31:44;;;;;;;17.08;11.40;;;13.20;99.90;;;;;;4158442;28;20060;-73
2021/09/23 05:33:45;;;;;;;18.50;12.02;;;13.20;99.90;;;;;;4160856;28;20509;-73
2021/09/23 05:35:46;;;;;;;18.17;11.07;;;13.20;99.90;;;;;;4156353;28;20056;-73
2021/09/23 05:37:47;;;;;;;17.30;11.30;;;13.10;99.90;;;;;;4159263;28;20620;-73
2021/09/23 05:39:47;;;;;;;16.88;11.18;;;13.10;99.90;;;;;;4163666;28;20412;-73
2021/09/23 05:41:48;;;;;;;19.67;12.10;;;13.10;99.90;;;;;;4161094;28;20041;-74
2021/09/23 05:43:48;;;;;;;17.98;12.15;;;13.10;99.90;;;;;;4161106;28;20117;-74
2021/09/23 05:45:49;;;;;;;18.15;11.15;;;13.10;99.90;;;;;;4153020;28;20026;-74
2021/09/23 05:47:49;;;;;;;20.63;12.00;;;13.20;99.90;;;;;;4158556;28;20129;-73
2021/09/23 05:49:50;;;;;;;15.07;10.02;;;13.20;99.90;;;;;;4157934;28;20717;-74
2021/09/23 05:51:51;;;;;;;15.82;10.05;;;13.20;99.90;;;;;;4159125;28;20021;-74
2021/09/23 05:53:52;;;;;;;15.80;10.73;;;13.20;99.90;;;;;;4159726;28;20036;-73
2021/09/23 05:55:52;;;;;;;17.95;10.73;;;13.20;99.90;;;;;;4149792;28;20038;-73
2021/09/23 05:57:53;;;;;;;14.23;10.32;;;13.20;99.90;;;;;;4157728;28;20281;-73
2021/09/23 05:59:54;;;;;;;16.42;10.75;;;13.30;99.90;;;;;;4155609;28;20030;-73
2021/09/23 06:01:55;;;;;;;17.98;11.80;;;13.30;99.90;;;;;;4159826;28;20081;-74
2021/09/23 06:03:56;;;;;;;16.95;10.75;;;13.30;99.90;;;;;;4157509;28;20120;-73
2021/09/23 06:05:56;;;;;;;21.08;11.57;;;13.20;99.90;;;;;;4159253;28;20482;-73
2021/09/23 06:07:57;;;;;;;18.02;10.75;;;13.10;99.90;;;;;;4157774;28;20053;-73
2021/09/23 06:09:58;;;;;;;14.55;10.65;;;13.10;99.90;;;;;;4157411;28;20507;-73
2021/09/23 06:11:58;;;;;;;17.10;10.85;;;13.10;99.90;;;;;;4159195;28;20052;-73
2021/09/23 06:13:59;;;;;;;14.90;9.93;;;13.10;99.90;;;;;;4159367;28;20029;-74
2021/09/23 06:15:59;;;;;;;17.10;9.75;;;13.10;99.90;;;;;;4160451;28;20030;-73
2021/09/23 06:18:00;;;;;;;15.68;9.98;;;13.10;99.90;;;;;;4162444;28;20029;-74
2021/09/23 06:20:01;;;;;;;15.85;9.93;;;13.20;99.90;;;;;;4162039;28;20033;-74
2021/09/23 06:22:02;;;;;;;15.80;10.38;;;13.20;99.90;;;;;;4162017;28;20128;-73
2021/09/23 06:24:03;;;;;;;15.25;9.95;;;13.20;99.90;;;;;;4160810;28;20026;-74
2021/09/23 06:26:04;;;;;;;15.13;9.50;;;13.20;99.90;;;;;;4159185;28;20493;-73
2021/09/23 06:28:06;;;;;;;20.80;10.43;;;13.30;99.90;;;;;;4160998;28;20035;-73
2021/09/23 06:30:07;;;;;;;16.33;9.95;;;13.30;99.90;;;;;;4160731;28;20038;-73
2021/09/23 06:32:08;;;;;;;20.05;10.95;;;13.40;99.90;;;;;;4161835;28;20040;-73
2021/09/23 06:34:08;;;;;;;16.08;10.10;;;13.30;99.90;;;;;;4159610;28;20453;-74
2021/09/23 06:36:09;;;;;;;18.17;10.95;;;13.40;99.90;;;;;;4160332;28;20025;-74
2021/09/23 06:38:10;;;;;;;16.42;10.35;;;13.40;99.90;;;;;;4162063;28;20026;-74
2021/09/23 06:40:11;;;;;;;15.38;10.15;;;13.40;99.90;;;;;;4161356;28;20060;-73
2021/09/23 06:42:15;;;;;;;16.05;10.55;;;13.50;99.90;;;;;;4160812;28;20041;-73
2021/09/23 06:44:16;;;;;;;17.27;10.57;;;13.50;99.90;;;;;;4159691;28;20049;-74
2021/09/23 06:46:20;;;;;;;20.58;11.18;;;13.50;99.90;;;;;;4158759;28;20068;-73
2021/09/23 06:48:20;;;;;;;18.63;10.98;;;13.50;99.90;;;;;;4160369;28;20033;-73
2021/09/23 06:50:21;;;;;;;17.30;10.52;;;13.50;99.90;;;;;;4161259;28;20045;-74
2021/09/23 06:52:21;;;;;;;16.13;9.60;;;13.60;99.90;;;;;;4161777;28;20176;-74
2021/09/23 06:54:22;;;;;;;15.63;9.55;;;13.60;99.90;;;;;;4159601;28;20029;-74
2021/09/23 06:56:23;;;;;;;14.60;10.02;;;13.60;99.90;;;;;;4157822;28;20402;-74
2021/09/23 06:58:24;;;;;;;15.30;10.05;;;13.70;99.90;;;;;;4160556;28;20042;-73
2021/09/23 07:00:26;;;;;;;16.52;10.27;;;13.70;99.90;;;;;;4159543;28;20041;-74
2021/09/23 07:02:27;;;;;;;16.90;9.95;;;13.70;99.90;;;;;;4158720;28;20033;-74
2021/09/23 07:04:27;;;;;;;18.60;11.00;;;13.70;99.90;;;;;;4159262;28;20513;-74
2021/09/23 07:06:28;;;;;;;19.27;11.52;;;13.70;99.90;;;;;;4161294;28;20042;-73
2021/09/23 07:08:29;;;;;;;16.35;10.88;;;13.80;99.90;;;;;;4160917;28;20038;-73
2021/09/23 07:10:29;;;;;;;21.42;11.88;;;13.80;99.90;;;;;;4161126;28;20033;-74
2021/09/23 07:12:30;;;;;;;17.05;11.32;;;13.90;99.90;;;;;;4161862;28;20029;-73
2021/09/23 07:14:30;;;;;;;16.02;10.43;;;13.90;99.90;;;;;;4161075;28;20093;-74
2021/09/23 07:16:31;;;;;;;16.98;10.48;;;14.00;99.90;;;;;;4160658;28;20029;-74
2021/09/23 07:18:31;;;;;;;15.57;10.43;;;14.00;99.90;;;;;;4161730;28;20113;-74
2021/09/23 07:20:32;;;;;;;17.23;10.95;;;14.10;99.90;;;;;;4161716;28;20033;-74
2021/09/23 07:22:33;;;;;;;20.38;12.20;;;14.10;99.90;;;;;;4162043;28;20034;-74
2021/09/23 07:24:33;;;;;;;19.50;11.60;;;14.20;99.90;;;;;;4161712;28;20042;-74
2021/09/23 07:26:34;;;;;;;17.52;11.48;;;14.10;99.90;;;;;;4180048;28;20068;-74
2021/09/23 07:28:35;;;;;;;19.98;12.20;;;14.20;99.90;;;;;;4184621;28;20039;-74
2021/09/23 07:30:35;;;;;;;19.05;11.32;;;14.30;99.90;;;;;;4179632;28;20051;-74
2021/09/23 07:32:36;;;;;;;18.83;11.00;;;14.40;99.90;;;;;;4178393;28;20044;-73
2021/09/23 07:34:37;;;;;;;16.80;11.65;;;14.40;99.90;;;;;;4184691;28;20040;-73
2021/09/23 07:36:39;;;;;;;21.48;12.02;;;14.50;99.90;;;;;;4185090;28;20036;-74
2021/09/23 07:38:40;;;;;;;20.25;10.75;;;14.50;99.90;;;;;;4181095;28;20033;-74
2021/09/23 07:40:41;;;;;;;15.52;9.77;;;14.60;99.90;;;;;;4185056;28;20033;-73
2021/09/23 07:42:41;;;;;;;20.73;11.60;;;14.60;99.90;;;;;;4178778;28;20264;-74
2021/09/23 07:44:42;;;;;;;21.40;11.95;;;14.70;99.90;;;;;;4181408;28;20708;-73
2021/09/23 07:46:43;;;;;;;18.65;11.77;;;14.70;99.90;;;;;;4182320;28;20107;-74
2021/09/23 07:48:47;;;;;;;17.05;10.88;;;14.80;99.90;;;;;;4182714;28;20036;-74
2021/09/23 07:50:49;;;;;;;16.85;9.75;;;14.90;99.90;;;;;;4183318;28;20411;-74
2021/09/23 07:52:49;;;;;;;15.50;10.23;;;15.00;99.90;;;;;;4170015;28;20985;-74
2021/09/23 07:54:54;;;;;;;17.60;11.23;;;15.10;99.90;;;;;;4175104;28;20032;-74
2021/09/23 07:56:54;;;;;;;16.42;10.73;;;15.20;99.90;;;;;;4177556;28;20079;-74
2021/09/23 07:58:55;;;;;;;18.63;10.77;;;15.20;99.90;;;;;;4174806;28;20396;-74
2021/09/23 08:00:56;;;;;;;15.48;9.55;;;15.30;99.90;;;;;;4175910;28;20465;-75
2021/09/23 08:02:56;;;;;;;14.40;9.30;;;15.50;99.90;;;;;;4173554;28;20455;-74
2021/09/23 08:04:57;;;;;;;14.65;10.48;;;15.50;99.90;;;;;;4174574;28;20082;-74
2021/09/23 08:06:58;;;;;;;15.23;10.48;;;15.60;99.90;;;;;;4176082;28;20029;-74
2021/09/23 08:08:58;;;;;;;21.15;9.30;;;15.70;99.90;;;;;;4181723;28;20079;-74
2021/09/23 08:11:00;;;;;;;14.93;9.60;;;15.80;99.90;;;;;;4178921;28;20032;-74
2021/09/23 08:13:02;;;;;;;20.95;9.55;;;15.90;99.90;;;;;;4185091;28;20040;-74
2021/09/23 08:15:04;;;;;;;15.13;9.60;;;16.00;99.90;;;;;;4181211;28;20456;-74
2021/09/23 08:17:05;;;;;;;16.05;9.05;;;16.10;99.90;;;;;;4175017;28;20418;-74
2021/09/23 08:19:07;;;;;;;13.88;8.45;;;16.20;99.90;;;;;;4178274;28;20083;-74
2021/09/23 08:21:08;;;;;;;12.80;8.18;;;16.30;99.90;;;;;;4178792;28;20033;-74
2021/09/23 08:23:09;;;;;;;13.38;9.23;;;16.40;99.90;;;;;;4174655;28;20041;-74
2021/09/23 08:25:10;;;;;;;14.20;8.93;;;16.50;99.90;;;;;;4159083;28;20617;-74
2021/09/23 08:27:11;;;;;;;15.65;9.02;;;16.60;99.90;;;;;;4172857;28;20511;-75
2021/09/23 08:29:11;;;;;;;11.35;8.05;;;16.80;99.90;;;;;;4176927;28;20033;-74
2021/09/23 08:31:16;;;;;;;13.82;9.20;;;16.90;99.90;;;;;;4180193;28;20040;-74
2021/09/23 08:33:16;;;;;;;11.07;7.53;;;17.00;99.90;;;;;;4173360;28;20036;-74
2021/09/23 08:35:17;;;;;;;12.90;7.95;;;17.10;99.90;;;;;;4180891;28;20040;-74
2021/09/23 08:37:19;;;;;;;9.88;7.28;;;17.30;99.90;;;;;;4180040;28;20488;-74
2021/09/23 08:39:20;;;;;;;12.55;7.55;;;17.40;99.90;;;;;;4178109;28;20036;-74
2021/09/23 08:41:20;;;;;;;13.38;8.38;;;17.60;99.90;;;;;;4176928;28;20132;-74
2021/09/23 08:43:21;;;;;;;12.20;8.50;;;17.60;99.90;;;;;;4180977;28;20037;-74
2021/09/23 08:45:22;;;;;;;11.55;7.28;;;17.80;99.90;;;;;;4180743;28;20037;-74
2021/09/23 08:47:23;;;;;;;9.93;6.80;;;17.90;99.90;;;;;;4180051;28;20519;-74
2021/09/23 08:49:24;;;;;;;14.18;7.97;;;18.10;99.90;;;;;;4178176;28;20104;-74
2021/09/23 08:51:26;;;;;;;10.27;6.95;;;18.10;99.90;;;;;;4175978;28;20154;-74
2021/09/23 08:53:28;;;;;;;10.90;7.63;;;18.20;99.90;;;;;;4179695;28;20035;-74
2021/09/23 08:55:31;;;;;;;11.73;7.40;;;18.30;99.90;;;;;;4177427;28;20048;-74
2021/09/23 08:57:32;;;;;;;10.27;6.55;;;18.40;99.90;;;;;;4181593;28;20041;-74
2021/09/23 08:59:33;;;;;;;11.48;7.03;;;18.50;99.90;;;;;;4181078;28;20037;-74
2021/09/23 09:01:40;;;;;;;11.90;6.97;;;18.60;99.90;;;;;;4173490;28;20090;-74
2021/09/23 09:03:40;;;;;;;10.25;6.38;;;18.60;99.90;;;;;;4174121;28;20034;-74
2021/09/23 09:05:52;;;;;;;13.05;7.53;;;18.70;99.90;;;;;;4180049;28;20577;-74
2021/09/23 09:08:13;;;;;;;14.63;7.95;;;18.70;99.90;;;;;;4177592;28;20037;-74
2021/09/23 09:10:14;;;;;;;13.15;7.90;;;18.70;99.90;;;;;;4176413;28;20396;-74
2021/09/23 09:12:14;;;;;;;14.43;8.38;;;18.80;99.90;;;;;;4175049;28;20048;-74
2021/09/23 09:14:23;;;;;;;12.48;7.45;;;18.80;99.90;;;;;;4179446;28;20536;-74
2021/09/23 09:16:28;;;;;;;10.43;6.88;;;18.80;99.90;;;;;;4177620;28;20033;-74
2021/09/23 09:18:28;;;;;;;11.20;7.57;;;18.90;99.90;;;;;;4177651;28;20082;-74
2021/09/23 09:20:29;;;;;;;9.98;6.82;;;19.00;99.90;;;;;;4172798;28;20072;-74
2021/09/23 09:22:33;;;;;;;11.75;7.45;;;19.00;99.90;;;;;;4173647;28;20265;-74
2021/09/23 09:24:45;;;;;;;11.18;8.02;;;19.00;99.90;;;;;;4177464;28;20067;-74
2021/09/23 09:26:46;;;;;;;11.47;7.30;;;19.10;99.90;;;;;;4177693;28;20105;-74
2021/09/23 09:28:49;;;;;;;15.35;8.40;;;19.10;99.90;;;;;;4177783;28;20041;-74
2021/09/23 09:30:57;;;;;;;11.02;6.63;;;19.20;99.90;;;;;;4177812;28;20040;-74
2021/09/23 09:32:58;;;;;;;11.63;7.25;;;19.30;99.90;;;;;;4179009;28;20073;-74
2021/09/23 09:34:59;;;;;;;10.52;6.70;;;19.40;99.90;;;;;;4178043;28;20056;-74
2021/09/23 09:37:00;;;;;;;9.02;6.82;;;19.50;99.90;;;;;;4177300;28;20544;-74
2021/09/23 09:39:01;;;;;;;16.67;8.97;;;19.50;99.90;;;;;;4179909;28;20556;-74
2021/09/23 09:41:02;;;;;;;12.43;7.90;;;19.60;99.90;;;;;;4177938;28;20132;-74
2021/09/23 09:43:05;;;;;;;15.05;7.75;;;19.70;99.90;;;;;;4177165;28;20037;-74
2021/09/23 09:45:06;;;;;;;13.30;8.07;;;19.70;99.90;;;;;;4180858;28;20033;-74
2021/09/23 09:47:07;;;;;;;15.50;7.07;;;19.80;99.90;;;;;;4177846;28;20127;-74
2021/09/23 09:49:08;;;;;;;12.95;7.53;;;19.90;99.90;;;;;;4179745;28;20109;-74
2021/09/23 09:51:09;;;;;;;10.02;7.15;;;19.90;99.90;;;;;;4176519;28;20064;-74
2021/09/23 09:53:12;;;;;;;10.82;7.25;;;20.00;99.90;;;;;;4179583;28;20145;-74
2021/09/23 09:55:13;;;;;;;12.90;7.50;;;20.00;99.90;;;;;;4181643;28;20043;-74
2021/09/23 09:57:25;;;;;;;13.57;8.73;;;20.00;99.90;;;;;;4181476;28;20067;-74
2021/09/23 09:59:26;;;;;;;12.73;8.90;;;20.10;99.90;;;;;;4182688;28;20128;-74
2021/09/23 10:01:27;;;;;;;13.73;8.25;;;20.10;99.90;;;;;;4180120;28;20767;-74
2021/09/23 10:03:28;;;;;;;13.90;7.70;;;20.10;99.90;;;;;;4163363;28;20038;-74
2021/09/23 10:05:29;;;;;;;9.30;6.18;;;20.20;99.90;;;;;;4181711;28;20063;-74
2021/09/23 10:07:34;;;;;;;12.65;8.32;;;20.30;99.90;;;;;;4184110;28;20079;-74
2021/09/23 10:09:38;;;;;;;8.55;6.38;;;20.30;99.90;;;;;;4183700;28;20384;-74
2021/09/23 10:11:47;;;;;;;13.02;7.60;;;20.40;99.90;;;;;;4174687;28;20036;-74
2021/09/23 10:13:48;;;;;;;11.88;7.35;;;20.50;99.90;;;;;;4183806;28;20024;-74
2021/09/23 10:15:49;;;;;;;15.80;9.38;;;20.50;99.90;;;;;;4181434;28;20425;-74
2021/09/23 10:17:51;;;;;;;25.35;9.82;;;20.40;99.90;;;;;;4181435;28;20030;-74
2021/09/23 10:19:52;;;;;;;18.67;10.27;;;20.40;99.90;;;;;;4179508;28;20443;-74